»·PEaware :: N982CA KSNA-KOXR

N982CA :: KSNA-KOXR

FLIGHT INFORMATION

Flight Status: Arrived
Operator: Privately registered:
United States
More flights under this callsign
Pilot: David C. (25479)
Aircraft: SOCATA TBM-900
(TBM9)
More flights by this aircraft type
Origin: KSNA John Wayne-Orange Co
United States
Destination: KOXR Oxnard
United States
More flights between these airports :: More routes between these airports
Route: SLI V23 LAX VNY
File this flight plan on PilotEdge
Remarks:
Altitude:
(Current/Filed)
6,000ft
Speed:
(Current/Filed)
175kts
Departed: 23-Jan-21 05:39 PM
Arrived: 23-Jan-21 06:14 PM
Distance/Time
Traveled:
73nm/0:35
Distance/Time
To Go:
Arrived

Flight Plot

Page will automatically refresh every two minutes.


Map Options




Map Legend


Flown Route
Filed Route
Departure Airport
Arrival Airport
Navaid (VOR, NDB)
Fix

Horizontal Profiles

Position Reports

Time Latitude Longitude Heading Altitude Ground
Speed
23-Jan-21 17:15 33.676511 -117.870525 45 46ft 0kts
23-Jan-21 17:16 33.676511 -117.870525 45 46ft 0kts
23-Jan-21 17:17 33.676511 -117.870525 45 46ft 0kts
23-Jan-21 17:18 33.676511 -117.870525 45 46ft 0kts
23-Jan-21 17:19 33.676511 -117.870525 45 46ft 0kts
23-Jan-21 17:20 33.676511 -117.870525 45 46ft 0kts
23-Jan-21 17:21 33.676511 -117.870525 45 46ft 0kts
23-Jan-21 17:22 33.676511 -117.870525 45 46ft 0kts
23-Jan-21 17:23 33.676511 -117.870525 45 46ft 0kts
23-Jan-21 17:24 33.676511 -117.870525 45 46ft 0kts
23-Jan-21 17:24 33.676511 -117.870525 45 46ft 0kts
23-Jan-21 17:26 33.676511 -117.870525 45 46ft 0kts
23-Jan-21 17:27 33.676511 -117.870525 45 46ft 0kts
23-Jan-21 17:27 33.676511 -117.870525 45 46ft 0kts
23-Jan-21 17:28 33.676511 -117.870525 45 46ft 0kts
23-Jan-21 17:29 33.676511 -117.870525 45 46ft 0kts
23-Jan-21 17:30 33.676511 -117.870525 45 46ft 0kts
23-Jan-21 17:31 33.676511 -117.870525 45 46ft 0kts
23-Jan-21 17:32 33.676511 -117.870525 45 46ft 0kts
23-Jan-21 17:33 33.676548 -117.870479 48 46ft 6kts
23-Jan-21 17:34 33.679483 -117.868060 25 45ft 18kts
23-Jan-21 17:35 33.681222 -117.866736 82 45ft 7kts
23-Jan-21 17:36 33.681135 -117.866482 128 45ft 0kts
23-Jan-21 17:37 33.681031 -117.866313 129 45ft 11kts
23-Jan-21 17:38 33.666556 -117.877904 227 402ft 100kts
23-Jan-21 17:39 33.646987 -117.900670 222 1408ft 97kts
23-Jan-21 17:40 33.616021 -117.934594 222 2447ft 183kts
23-Jan-21 17:41 33.587517 -117.982653 290 3454ft 189kts
23-Jan-21 17:42 33.621064 -118.031577 315 4457ft 196kts
23-Jan-21 17:43 33.658970 -118.079432 312 5453ft 197kts
23-Jan-21 17:44 33.696742 -118.127822 310 5969ft 196kts
23-Jan-21 17:45 33.732768 -118.174081 309 5996ft 193kts
23-Jan-21 17:46 33.769127 -118.220770 309 5999ft 193kts
23-Jan-21 17:47 33.805572 -118.267600 309 5995ft 182kts
23-Jan-21 17:48 33.838061 -118.309433 309 5991ft 163kts
23-Jan-21 17:49 33.868556 -118.348729 309 5996ft 159kts
23-Jan-21 17:50 33.898939 -118.387361 310 6000ft 159kts
23-Jan-21 17:51 33.936035 -118.417546 328 5999ft 162kts
23-Jan-21 17:52 33.978774 -118.435411 346 6000ft 166kts
23-Jan-21 17:53 34.024608 -118.442446 349 6003ft 167kts
23-Jan-21 17:54 34.068870 -118.451839 345 5996ft 156kts
23-Jan-21 17:55 34.111823 -118.462031 344 5976ft 169kts
23-Jan-21 17:56 34.158037 -118.478115 307 5998ft 173kts
23-Jan-21 17:57 34.173510 -118.531721 283 5998ft 171kts
23-Jan-21 17:58 34.185522 -118.587059 282 5998ft 174kts
23-Jan-21 17:59 34.197604 -118.644268 282 5999ft 170kts
23-Jan-21 18:00 34.206898 -118.686924 283 5998ft 122kts
23-Jan-21 18:01 34.215624 -118.726683 283 6010ft 122kts
23-Jan-21 18:02 34.224333 -118.766493 283 5999ft 122kts
23-Jan-21 18:03 34.233010 -118.806079 283 6001ft 122kts
23-Jan-21 18:04 34.220642 -118.845507 243 5285ft 134kts
23-Jan-21 18:05 34.203903 -118.886117 246 4359ft 132kts
23-Jan-21 18:06 34.201519 -118.928954 267 3893ft 133kts
23-Jan-21 18:07 34.198657 -118.971540 269 3611ft 122kts
23-Jan-21 18:08 34.199355 -119.014655 269 3024ft 131kts
23-Jan-21 18:09 34.199698 -119.058577 269 2318ft 130kts
23-Jan-21 18:10 34.200018 -119.102286 269 1624ft 129kts
23-Jan-21 18:11 34.200361 -119.145453 269 941ft 128kts
23-Jan-21 18:12 34.200613 -119.187499 268 267ft 112kts
23-Jan-21 18:13 34.200781 -119.207005 252 48ft 0kts
23-Jan-21 18:14 34.200023 -119.207222 173 47ft 0kts
23-Jan-21 18:15 34.199795 -119.205977 88 48ft 8kts
23-Jan-21 18:16 34.198453 -119.199880 116 45ft 12kts
23-Jan-21 18:17 34.198774 -119.199421 326 45ft 0kts
23-Jan-21 18:18 34.198774 -119.199421 326 45ft 0kts
23-Jan-21 18:19 34.198774 -119.199421 326 45ft 0kts
23-Jan-21 18:20 34.198774 -119.199421 326 45ft 0kts

Navigation Log

Ident Type
Flight plan parsing failed, navigation log unavailable